createdAt,value
2022-07-29T00:01:20.573Z,66.76
2022-07-29T00:03:52.784Z,66.66
2022-07-29T00:06:25.406Z,66.62
2022-07-29T00:08:57.380Z,66.68
2022-07-29T00:11:29.406Z,66.83
2022-07-29T00:14:01.540Z,66.82
2022-07-29T00:16:33.773Z,67.03
2022-07-29T00:19:07.904Z,67.41
2022-07-29T00:21:40.524Z,67.67
2022-07-29T00:24:13.074Z,67.67
2022-07-29T00:26:45.315Z,68.52
2022-07-29T00:29:33.594Z,68.89
2022-07-29T00:31:51.667Z,69.31
2022-07-29T00:34:41.068Z,69.58
2022-07-29T00:37:13.046Z,69.91
2022-07-29T00:39:45.364Z,70.01
2022-07-29T00:42:17.690Z,70.58
2022-07-29T00:44:50.042Z,70.79
2022-07-29T00:47:22.266Z,70.88
2022-07-29T00:49:54.270Z,71.05
2022-07-29T00:52:26.784Z,71.29
2022-07-29T00:54:59.382Z,70.99
2022-07-29T00:57:33.604Z,69.81
2022-07-29T01:00:07.623Z,70.02
2022-07-29T01:02:39.730Z,69.87
2022-07-29T01:05:14.183Z,69.55
2022-07-29T01:07:48.324Z,69.88
2022-07-29T01:10:22.334Z,70.18
2022-07-29T01:12:56.994Z,70.25
2022-07-29T01:15:30.806Z,70.14
2022-07-29T01:18:22.275Z,70.43
2022-07-29T01:21:15.196Z,70.91
2022-07-29T01:24:20.200Z,71.22
2022-07-29T01:26:58.706Z,71.44
2022-07-29T01:29:42.610Z,71.04
2022-07-29T01:32:34.264Z,71.51
2022-07-29T01:35:09.219Z,71.70
2022-07-29T01:37:46.902Z,72.17
2022-07-29T01:40:39.747Z,72.71
2022-07-29T01:43:14.539Z,72.83
2022-07-29T01:45:52.528Z,73.05
2022-07-29T01:48:27.347Z,72.99
2022-07-29T01:51:02.373Z,73.21
2022-07-29T01:53:38.309Z,72.80
2022-07-29T01:56:12.442Z,72.60
2022-07-29T01:58:46.975Z,73.05
2022-07-29T02:01:21.029Z,73.09
2022-07-29T02:03:55.152Z,72.83
2022-07-29T02:06:29.351Z,72.86
2022-07-29T02:09:02.471Z,73.12
2022-07-29T02:11:37.678Z,73.09
2022-07-29T02:14:11.819Z,73.01
2022-07-29T02:16:45.929Z,73.18
2022-07-29T02:19:20.618Z,73.08
2022-07-29T02:21:55.494Z,73.13
2022-07-29T02:24:28.752Z,73.26
2022-07-29T02:27:04.369Z,73.02
2022-07-29T02:29:39.348Z,73.08
2022-07-29T02:32:14.714Z,72.93
2022-07-29T02:34:49.036Z,73.05
2022-07-29T02:37:22.114Z,73.04
2022-07-29T02:39:56.222Z,72.89
2022-07-29T02:42:30.426Z,72.58
2022-07-29T02:45:02.392Z,72.58
2022-07-29T02:47:41.418Z,72.51
2022-07-29T02:50:17.181Z,72.24
2022-07-29T02:53:12.977Z,71.47
2022-07-29T02:56:00.115Z,71.49
2022-07-29T02:58:34.802Z,71.24
2022-07-29T03:01:07.500Z,71.59
2022-07-29T03:03:41.711Z,70.80
2022-07-29T03:06:28.823Z,70.32
2022-07-29T03:08:51.653Z,70.20
2022-07-29T03:11:49.076Z,69.72
2022-07-29T03:13:58.576Z,69.42
2022-07-29T03:16:31.795Z,69.00
2022-07-29T03:19:05.326Z,68.67
2022-07-29T03:21:37.527Z,68.52
2022-07-29T03:24:10.971Z,68.60
2022-07-29T03:26:43.671Z,68.76
2022-07-29T03:29:15.867Z,68.19
2022-07-29T03:31:49.800Z,67.77
2022-07-29T03:34:23.486Z,67.77
2022-07-29T03:36:55.547Z,68.08
2022-07-29T03:39:29.771Z,67.70
2022-07-29T03:42:03.057Z,67.27
2022-07-29T03:44:36.814Z,67.00
2022-07-29T03:47:11.440Z,66.65
2022-07-29T03:49:44.343Z,66.13
2022-07-29T03:52:16.815Z,65.25
2022-07-29T03:54:50.215Z,65.03
2022-07-29T03:57:25.463Z,64.81
2022-07-29T03:59:58.395Z,64.13
2022-07-29T04:02:30.936Z,64.48
2022-07-29T04:05:03.374Z,63.89
2022-07-29T04:07:35.356Z,62.96
2022-07-29T04:10:08.604Z,63.31
2022-07-29T04:12:40.913Z,62.81
2022-07-29T04:15:14.458Z,62.01
2022-07-29T04:17:46.742Z,62.00
2022-07-29T04:20:20.820Z,62.24
2022-07-29T04:22:53.431Z,61.83
2022-07-29T04:25:25.847Z,61.93
2022-07-29T04:28:04.159Z,61.44
2022-07-29T04:30:37.899Z,61.72
2022-07-29T04:33:10.604Z,61.19
2022-07-29T04:35:50.031Z,61.41
2022-07-29T04:38:17.518Z,61.21
2022-07-29T04:40:50.062Z,60.94
2022-07-29T04:43:23.428Z,60.81
2022-07-29T04:45:56.260Z,60.40
2022-07-29T04:48:29.313Z,60.14
2022-07-29T04:51:01.806Z,60.10
2022-07-29T04:53:34.107Z,60.02
2022-07-29T04:56:07.121Z,60.13
2022-07-29T04:58:39.398Z,59.86
2022-07-29T05:01:11.922Z,60.17
2022-07-29T05:03:44.123Z,60.20
2022-07-29T05:06:16.663Z,59.62
2022-07-29T05:08:48.751Z,59.44
2022-07-29T05:11:22.503Z,59.78
2022-07-29T05:13:54.960Z,59.93
2022-07-29T05:16:27.547Z,59.57
2022-07-29T05:19:00.095Z,59.90
2022-07-29T05:21:33.025Z,59.83
2022-07-29T05:24:07.128Z,59.50
2022-07-29T05:26:39.804Z,58.52
2022-07-29T05:29:44.297Z,58.35
2022-07-29T05:31:45.986Z,58.39
2022-07-29T05:34:19.170Z,57.94
2022-07-29T05:36:52.026Z,57.88
2022-07-29T05:39:47.487Z,57.37
2022-07-29T05:41:58.465Z,56.78
2022-07-29T05:44:30.444Z,56.69
2022-07-29T05:47:02.612Z,55.27
2022-07-29T05:49:35.163Z,56.01
2022-07-29T05:52:07.348Z,56.32
2022-07-29T05:54:39.542Z,56.22
2022-07-29T05:57:13.910Z,55.89
2022-07-29T05:59:46.058Z,55.70
2022-07-29T06:02:19.324Z,54.88
2022-07-29T06:04:52.808Z,54.29
2022-07-29T06:07:25.656Z,53.74
2022-07-29T06:09:57.834Z,53.38
2022-07-29T06:12:30.019Z,53.12
2022-07-29T06:15:02.291Z,52.45
2022-07-29T06:17:34.823Z,52.39
2022-07-29T06:20:10.733Z,51.61
2022-07-29T06:22:42.327Z,51.45
2022-07-29T06:25:14.795Z,50.98
2022-07-29T06:27:47.124Z,49.62
2022-07-29T06:30:19.292Z,49.31
2022-07-29T06:32:51.647Z,48.99
2022-07-29T06:35:38.454Z,47.98
2022-07-29T06:37:59.525Z,47.78
2022-07-29T06:40:49.474Z,47.38
2022-07-29T06:43:21.891Z,46.66
2022-07-29T06:45:55.375Z,46.52
2022-07-29T06:48:27.819Z,46.62
2022-07-29T06:51:00.212Z,46.40
2022-07-29T06:53:33.520Z,46.64
2022-07-29T06:56:09.296Z,46.31
2022-07-29T06:58:42.231Z,46.74
2022-07-29T07:01:14.505Z,46.92
2022-07-29T07:03:47.424Z,46.37
2022-07-29T07:06:19.993Z,45.57
2022-07-29T07:08:52.752Z,44.82
2022-07-29T07:11:25.504Z,43.59
2022-07-29T07:14:02.688Z,43.40
2022-07-29T07:16:32.764Z,43.45
2022-07-29T07:19:05.922Z,43.67
2022-07-29T07:21:38.333Z,43.51
2022-07-29T07:24:10.855Z,43.51
2022-07-29T07:26:42.934Z,42.33
2022-07-29T07:29:15.801Z,42.59
2022-07-29T07:31:48.403Z,42.48
2022-07-29T07:34:28.391Z,42.19
2022-07-29T07:36:55.207Z,42.39
2022-07-29T07:39:27.890Z,41.70
2022-07-29T07:42:01.043Z,40.59
2022-07-29T07:44:42.413Z,41.36
2022-07-29T07:47:08.780Z,40.09
2022-07-29T07:49:41.901Z,40.49
2022-07-29T07:52:18.310Z,40.26
2022-07-29T07:54:51.649Z,39.76
2022-07-29T07:57:24.059Z,39.51
2022-07-29T07:59:56.470Z,39.33
2022-07-29T08:02:29.372Z,39.71
2022-07-29T08:05:01.693Z,40.00
2022-07-29T08:07:34.276Z,39.19
2022-07-29T08:10:07.819Z,38.95
2022-07-29T08:12:40.294Z,39.09
2022-07-29T08:15:12.729Z,39.11
2022-07-29T08:17:45.047Z,38.75
2022-07-29T08:20:17.254Z,38.17
2022-07-29T08:22:49.841Z,37.83
2022-07-29T08:25:22.515Z,37.43
2022-07-29T08:27:54.845Z,37.29
2022-07-29T08:30:27.496Z,36.53
2022-07-29T08:33:00.672Z,37.72
2022-07-29T08:35:35.727Z,37.47
2022-07-29T08:38:07.757Z,37.48
2022-07-29T08:40:39.897Z,38.13
2022-07-29T08:43:12.117Z,38.54
2022-07-29T08:45:50.294Z,37.98
2022-07-29T08:48:24.893Z,36.69
2022-07-29T08:50:57.332Z,36.15
2022-07-29T08:53:30.559Z,38.02
2022-07-29T08:56:04.593Z,36.50
2022-07-29T08:58:38.342Z,36.95
2022-07-29T09:01:13.907Z,37.00
2022-07-29T09:03:48.508Z,36.77
2022-07-29T09:06:23.018Z,37.17
2022-07-29T09:08:56.599Z,36.37
2022-07-29T09:11:29.728Z,36.88
2022-07-29T09:14:01.752Z,36.64
2022-07-29T09:16:54.378Z,36.86
2022-07-29T09:19:35.919Z,36.78
2022-07-29T09:22:11.592Z,36.51
2022-07-29T09:24:49.231Z,36.55
2022-07-29T09:27:28.262Z,36.28
2022-07-29T09:30:11.223Z,36.25
2022-07-29T09:33:03.891Z,36.85
2022-07-29T09:35:36.508Z,37.33
2022-07-29T09:38:16.150Z,37.60
2022-07-29T09:40:51.587Z,37.20
2022-07-29T09:43:23.654Z,36.46
2022-07-29T09:45:56.097Z,35.95
2022-07-29T09:48:28.862Z,34.86
2022-07-29T09:51:03.244Z,34.31
2022-07-29T09:53:38.166Z,34.20
2022-07-29T09:56:11.779Z,34.64
2022-07-29T09:58:44.354Z,34.79
2022-07-29T10:01:17.090Z,32.99
2022-07-29T10:03:56.131Z,32.90
2022-07-29T10:06:28.237Z,33.41
2022-07-29T10:09:14.135Z,33.79
2022-07-29T10:11:49.978Z,34.17
2022-07-29T10:14:22.586Z,34.34
2022-07-29T10:16:55.390Z,34.68
2022-07-29T10:19:27.966Z,34.76
2022-07-29T10:22:02.125Z,34.70
2022-07-29T10:24:35.341Z,35.06
2022-07-29T10:27:10.442Z,34.65
2022-07-29T10:29:42.768Z,34.99
2022-07-29T10:32:33.606Z,34.58
2022-07-29T10:35:15.146Z,34.23
2022-07-29T10:38:19.068Z,33.34
2022-07-29T10:41:24.119Z,32.53
2022-07-29T10:44:16.247Z,32.42
2022-07-29T10:46:47.253Z,32.64
2022-07-29T10:49:30.397Z,32.89
2022-07-29T10:52:12.190Z,32.66
2022-07-29T10:54:51.265Z,32.07
2022-07-29T10:57:52.518Z,31.41
2022-07-29T11:00:14.295Z,31.56
2022-07-29T11:02:50.631Z,31.71
2022-07-29T11:05:24.472Z,31.55
2022-07-29T11:08:21.106Z,32.79
2022-07-29T11:10:56.598Z,31.76
2022-07-29T11:13:52.388Z,30.27
2022-07-29T11:16:25.709Z,30.40
2022-07-29T11:19:26.477Z,30.96
2022-07-29T11:22:05.411Z,30.73
2022-07-29T11:24:33.444Z,30.31
2022-07-29T11:27:23.228Z,29.43
2022-07-29T11:29:58.625Z,28.42
2022-07-29T11:32:44.845Z,27.89
2022-07-29T11:35:38.556Z,27.95
2022-07-29T11:38:27.902Z,28.58
2022-07-29T11:41:27.155Z,29.83
2022-07-29T11:44:02.252Z,31.06
2022-07-29T11:46:53.933Z,32.03
2022-07-29T11:49:32.035Z,32.36
2022-07-29T11:52:04.094Z,32.42
2022-07-29T11:54:38.824Z,32.34
2022-07-29T11:57:11.870Z,30.91
2022-07-29T11:59:46.058Z,28.47
2022-07-29T12:02:36.411Z,25.75
2022-07-29T12:04:55.628Z,24.80
2022-07-29T12:07:36.317Z,24.84
2022-07-29T12:10:11.653Z,25.99
2022-07-29T12:12:44.298Z,26.72
2022-07-29T12:15:22.257Z,27.98
2022-07-29T12:17:55.237Z,28.67
2022-07-29T12:20:30.691Z,29.55
2022-07-29T12:23:06.372Z,29.46
2022-07-29T12:25:38.695Z,28.40
2022-07-29T12:28:14.374Z,24.57
2022-07-29T12:30:52.591Z,22.27
2022-07-29T12:33:28.522Z,22.62
2022-07-29T12:36:07.321Z,23.12
2022-07-29T12:38:38.256Z,24.39
2022-07-29T12:41:10.832Z,25.12
2022-07-29T12:43:45.798Z,25.88
2022-07-29T12:46:18.569Z,25.93
2022-07-29T12:48:54.942Z,23.36
2022-07-29T12:51:37.667Z,20.91
2022-07-29T12:54:12.175Z,19.65
2022-07-29T12:56:46.384Z,18.43
2022-07-29T12:59:19.386Z,16.67
2022-07-29T13:01:53.054Z,17.03
2022-07-29T13:04:31.883Z,16.96
2022-07-29T13:07:07.501Z,17.26
2022-07-29T13:09:42.328Z,15.78
2022-07-29T13:12:16.509Z,17.20
2022-07-29T13:14:50.867Z,18.83
2022-07-29T13:17:24.999Z,20.78
2022-07-29T13:20:13.253Z,22.75
2022-07-29T13:22:46.705Z,20.81
2022-07-29T13:25:33.328Z,18.11
2022-07-29T13:28:05.937Z,15.97
2022-07-29T13:30:38.674Z,14.66
2022-07-29T13:33:12.969Z,13.71
2022-07-29T13:35:45.253Z,13.22
2022-07-29T13:38:18.297Z,13.33
2022-07-29T13:40:52.298Z,12.84
2022-07-29T13:43:24.454Z,12.36
2022-07-29T13:45:57.671Z,11.77
2022-07-29T13:48:30.348Z,11.66
2022-07-29T13:51:02.804Z,11.53
2022-07-29T13:53:35.863Z,11.42
2022-07-29T13:56:08.290Z,10.86
2022-07-29T13:58:40.267Z,10.33
2022-07-29T14:01:12.801Z,10.07
2022-07-29T14:03:45.830Z,10.81
2022-07-29T14:06:18.404Z,11.61
2022-07-29T14:08:52.210Z,12.25
2022-07-29T14:11:24.965Z,13.78
2022-07-29T14:13:57.621Z,15.20
2022-07-29T14:16:30.032Z,18.37
2022-07-29T14:19:02.283Z,19.06
2022-07-29T14:21:35.777Z,20.63
2022-07-29T14:24:17.756Z,20.88
2022-07-29T14:26:46.278Z,18.99
2022-07-29T14:29:19.105Z,18.92
2022-07-29T14:31:51.279Z,17.44
2022-07-29T14:34:23.883Z,16.56
2022-07-29T14:36:56.538Z,17.25
2022-07-29T14:39:31.908Z,19.24
2022-07-29T14:42:02.651Z,20.83
2022-07-29T14:44:34.808Z,22.73
2022-07-29T14:47:08.240Z,23.96
2022-07-29T14:49:40.828Z,21.87
2022-07-29T14:52:13.482Z,19.47
2022-07-29T14:54:45.954Z,17.15
2022-07-29T14:57:18.940Z,15.45
2022-07-29T14:59:51.729Z,14.06
2022-07-29T15:02:40.080Z,12.92
2022-07-29T15:04:58.575Z,12.39
2022-07-29T15:07:31.375Z,12.49
2022-07-29T15:10:05.428Z,14.06
2022-07-29T15:12:41.685Z,15.15
2022-07-29T15:15:15.197Z,15.26
2022-07-29T15:17:47.433Z,14.78
2022-07-29T15:20:20.604Z,14.55
2022-07-29T15:22:52.830Z,15.78
2022-07-29T15:25:28.313Z,18.04
2022-07-29T15:28:02.219Z,19.78
2022-07-29T15:30:35.110Z,22.33
2022-07-29T15:33:09.191Z,24.00
2022-07-29T15:35:41.778Z,26.05
2022-07-29T15:38:14.256Z,27.72
2022-07-29T15:40:47.551Z,29.02
2022-07-29T15:43:19.924Z,29.93
2022-07-29T15:46:10.198Z,30.72
2022-07-29T15:48:43.159Z,33.65
2022-07-29T15:51:15.698Z,35.24
2022-07-29T15:53:53.618Z,36.37
2022-07-29T15:56:22.115Z,37.02
2022-07-29T15:58:54.860Z,37.66
2022-07-29T16:01:27.474Z,38.02
2022-07-29T16:04:00.001Z,38.62
2022-07-29T16:06:32.356Z,38.85
2022-07-29T16:09:04.705Z,38.72
2022-07-29T16:11:37.144Z,38.92
2022-07-29T16:14:11.184Z,39.27
2022-07-29T16:16:43.625Z,39.52
2022-07-29T16:19:15.963Z,39.87
2022-07-29T16:21:48.432Z,39.89
2022-07-29T16:24:20.793Z,40.58
2022-07-29T16:26:53.177Z,40.96
2022-07-29T16:29:25.990Z,41.47
2022-07-29T16:31:58.201Z,42.02
2022-07-29T16:34:30.681Z,42.38
2022-07-29T16:37:03.461Z,43.08
2022-07-29T16:39:35.717Z,43.52
2022-07-29T16:42:08.413Z,43.89
2022-07-29T16:44:40.843Z,44.20
2022-07-29T16:47:13.373Z,44.59
2022-07-29T16:49:45.928Z,44.77
2022-07-29T16:52:18.219Z,45.05
2022-07-29T16:54:50.936Z,45.21
2022-07-29T16:57:23.429Z,45.45
2022-07-29T16:59:55.462Z,45.54
2022-07-29T17:02:27.818Z,45.91
2022-07-29T17:05:00.491Z,46.09
2022-07-29T17:07:34.661Z,46.43
2022-07-29T17:10:11.558Z,46.57
2022-07-29T17:12:43.586Z,46.79
2022-07-29T17:15:17.881Z,46.34
2022-07-29T17:17:55.361Z,46.60
2022-07-29T17:20:24.573Z,46.44
2022-07-29T17:22:56.911Z,46.67
2022-07-29T17:25:29.767Z,46.77
2022-07-29T17:28:01.938Z,47.09
2022-07-29T17:30:34.394Z,47.37
2022-07-29T17:33:06.803Z,47.85
2022-07-29T17:35:56.254Z,48.04
2022-07-29T17:38:28.688Z,48.08
2022-07-29T17:41:00.966Z,48.54
2022-07-29T17:43:33.879Z,48.90
2022-07-29T17:46:08.380Z,49.38
2022-07-29T17:48:41.495Z,49.74
2022-07-29T17:51:13.694Z,49.97
2022-07-29T17:53:46.141Z,49.84
2022-07-29T17:56:18.563Z,50.05
2022-07-29T17:58:50.834Z,50.42
2022-07-29T18:01:23.058Z,51.05
2022-07-29T18:03:59.789Z,51.39
2022-07-29T18:06:29.247Z,51.25
2022-07-29T18:09:01.460Z,51.68
2022-07-29T18:11:33.641Z,51.87
2022-07-29T18:14:05.744Z,51.83
2022-07-29T18:16:38.877Z,51.49
2022-07-29T18:19:10.909Z,50.68
2022-07-29T18:21:52.012Z,50.42
2022-07-29T18:24:16.890Z,50.07
2022-07-29T18:26:48.967Z,49.85
2022-07-29T18:29:21.110Z,50.01
2022-07-29T18:31:53.093Z,50.42
2022-07-29T18:34:25.163Z,50.67
2022-07-29T18:36:57.689Z,51.19
2022-07-29T18:39:30.149Z,51.64
2022-07-29T18:42:02.333Z,52.30
2022-07-29T18:44:34.444Z,52.74
2022-07-29T18:47:08.129Z,53.50
2022-07-29T18:49:42.111Z,53.71
2022-07-29T18:52:18.584Z,54.24
2022-07-29T18:54:50.937Z,54.62
2022-07-29T18:57:54.707Z,54.89
2022-07-29T18:59:58.247Z,54.88
2022-07-29T19:02:30.317Z,55.03
2022-07-29T19:05:02.404Z,55.41
2022-07-29T19:07:34.614Z,55.58
2022-07-29T19:10:07.474Z,55.91
2022-07-29T19:12:40.804Z,56.32
2022-07-29T19:15:13.097Z,56.61
2022-07-29T19:17:48.197Z,56.86
2022-07-29T19:20:20.433Z,56.88
2022-07-29T19:22:52.589Z,57.12
2022-07-29T19:25:24.726Z,57.35
2022-07-29T19:27:56.763Z,57.57
2022-07-29T19:30:28.762Z,57.59
2022-07-29T19:33:02.921Z,57.83
2022-07-29T19:35:35.156Z,58.09
2022-07-29T19:38:07.189Z,58.31
2022-07-29T19:40:42.233Z,58.40
2022-07-29T19:43:50.504Z,58.49
2022-07-29T19:45:48.285Z,58.63
2022-07-29T19:48:20.350Z,58.86
2022-07-29T19:50:52.345Z,59.07
2022-07-29T19:53:24.848Z,59.22
2022-07-29T19:55:56.879Z,59.25
2022-07-29T19:58:29.052Z,59.66
2022-07-29T20:01:01.039Z,59.90
2022-07-29T20:03:33.181Z,60.05
2022-07-29T20:06:05.342Z,60.13
2022-07-29T20:08:37.847Z,60.40
2022-07-29T20:11:10.229Z,60.20
2022-07-29T20:13:42.282Z,60.34
2022-07-29T20:16:14.489Z,60.54
2022-07-29T20:18:46.420Z,60.61
2022-07-29T20:21:19.068Z,60.69
2022-07-29T20:23:51.304Z,61.00
2022-07-29T20:26:24.107Z,61.22
2022-07-29T20:28:56.285Z,61.25
2022-07-29T20:31:30.872Z,61.30
2022-07-29T20:34:03.485Z,61.11
2022-07-29T20:36:35.701Z,60.89
2022-07-29T20:39:08.076Z,61.13
2022-07-29T20:41:40.213Z,61.20
2022-07-29T20:44:12.659Z,61.26
2022-07-29T20:46:45.075Z,61.29
2022-07-29T20:49:17.555Z,61.23
2022-07-29T20:51:50.303Z,61.68
2022-07-29T20:54:29.047Z,61.32
2022-07-29T20:57:02.768Z,61.14
2022-07-29T20:59:36.128Z,59.81
2022-07-29T21:02:08.805Z,60.51
2022-07-29T21:04:43.384Z,60.06
2022-07-29T21:07:15.529Z,59.44
2022-07-29T21:09:47.670Z,58.99
2022-07-29T21:12:19.713Z,58.29
2022-07-29T21:14:52.237Z,58.03
2022-07-29T21:17:24.664Z,57.67
2022-07-29T21:19:57.030Z,57.93
2022-07-29T21:22:29.133Z,57.76
2022-07-29T21:25:02.311Z,57.72
2022-07-29T21:27:52.119Z,57.77
2022-07-29T21:30:24.414Z,57.74
2022-07-29T21:32:56.583Z,58.04
2022-07-29T21:36:02.014Z,58.32
2022-07-29T21:38:02.839Z,58.57
2022-07-29T21:40:35.214Z,58.50
2022-07-29T21:43:07.144Z,58.83
2022-07-29T21:45:39.255Z,59.17
2022-07-29T21:48:11.965Z,59.34
2022-07-29T21:50:44.598Z,59.55
2022-07-29T21:53:17.602Z,59.70
2022-07-29T21:55:51.642Z,59.93
2022-07-29T21:58:25.518Z,60.11
2022-07-29T22:00:57.694Z,60.45
2022-07-29T22:03:30.002Z,60.50
2022-07-29T22:06:01.992Z,60.79
2022-07-29T22:08:34.555Z,61.10
2022-07-29T22:11:06.706Z,61.34
2022-07-29T22:13:38.986Z,61.67
2022-07-29T22:16:12.614Z,61.97
2022-07-29T22:18:48.423Z,62.18
2022-07-29T22:21:20.719Z,62.19
2022-07-29T22:23:53.094Z,62.28
2022-07-29T22:26:25.380Z,62.12
2022-07-29T22:28:57.590Z,61.98
2022-07-29T22:31:29.886Z,61.75
2022-07-29T22:34:02.533Z,62.10
2022-07-29T22:36:34.869Z,61.96
2022-07-29T22:39:07.276Z,61.94
2022-07-29T22:41:39.718Z,61.63
2022-07-29T22:44:12.072Z,61.37
2022-07-29T22:46:44.459Z,61.19
2022-07-29T22:49:17.093Z,60.58
2022-07-29T22:51:49.742Z,60.55
2022-07-29T22:54:21.930Z,60.58
2022-07-29T22:56:54.097Z,60.46
2022-07-29T22:59:26.203Z,60.92
2022-07-29T23:01:58.203Z,61.22
2022-07-29T23:04:30.475Z,61.52
2022-07-29T23:07:02.775Z,61.99
2022-07-29T23:09:35.195Z,62.36
2022-07-29T23:12:08.249Z,62.59
2022-07-29T23:14:40.660Z,62.87
2022-07-29T23:17:12.891Z,62.88
2022-07-29T23:19:44.872Z,63.09
2022-07-29T23:22:17.196Z,63.43
2022-07-29T23:24:50.665Z,63.10
2022-07-29T23:27:22.641Z,63.43
2022-07-29T23:29:55.178Z,63.47
2022-07-29T23:32:27.065Z,63.49
2022-07-29T23:34:59.262Z,62.96
2022-07-29T23:37:33.074Z,63.07
2022-07-29T23:40:09.680Z,63.21
2022-07-29T23:42:42.787Z,63.35
2022-07-29T23:45:15.570Z,63.40
2022-07-29T23:47:47.661Z,63.57
2022-07-29T23:50:19.757Z,63.45
2022-07-29T23:52:51.655Z,63.45
2022-07-29T23:55:36.479Z,63.57
2022-07-29T23:57:57.439Z,63.72
